createdAt,value
2023-04-11T00:00:08.592Z,18.37
2023-04-11T00:05:35.217Z,27.17
2023-04-11T00:10:57.603Z,23.27
2023-04-11T00:16:21.331Z,25.40
2023-04-11T00:21:45.489Z,29.67
2023-04-11T00:27:07.874Z,25.02
2023-04-11T00:32:30.741Z,26.48
2023-04-11T00:37:54.719Z,27.45
2023-04-11T00:43:17.365Z,25.08
2023-04-11T00:48:40.248Z,25.80
2023-04-11T00:54:03.526Z,21.70
2023-04-11T00:59:25.918Z,24.10
2023-04-11T01:04:48.191Z,24.43
2023-04-11T01:10:15.827Z,34.35
2023-04-11T01:15:38.219Z,31.30
2023-04-11T01:21:00.806Z,31.52
2023-04-11T01:26:23.332Z,30.02
2023-04-11T01:31:45.669Z,31.20
2023-04-11T01:37:08.878Z,29.65
2023-04-11T01:42:32.468Z,31.17
2023-04-11T01:47:55.244Z,33.18
2023-04-11T01:53:17.529Z,27.10
2023-04-11T01:58:39.952Z,27.35
2023-04-11T02:04:02.389Z,30.25
2023-04-11T02:09:24.896Z,31.57
2023-04-11T02:14:53.432Z,35.13
2023-04-11T02:20:17.092Z,33.40
2023-04-11T02:25:39.497Z,36.15
2023-04-11T02:31:02.428Z,32.20
2023-04-11T02:36:25.045Z,37.83
2023-04-11T02:41:47.768Z,34.08
2023-04-11T02:47:11.476Z,27.15
2023-04-11T02:52:34.041Z,32.20
2023-04-11T02:57:56.754Z,29.92
2023-04-11T03:03:19.487Z,29.70
2023-04-11T03:08:42.477Z,30.12
2023-04-11T03:14:04.760Z,30.12
2023-04-11T03:19:27.615Z,29.70
2023-04-11T03:24:50.381Z,29.92
2023-04-11T03:30:13.547Z,34.15
2023-04-11T03:35:36.034Z,30.32
2023-04-11T03:40:58.495Z,30.32
2023-04-11T03:46:21.779Z,30.27
2023-04-11T03:51:44.689Z,34.43
2023-04-11T03:57:06.980Z,35.13
2023-04-11T04:02:29.360Z,40.52
2023-04-11T04:07:53.503Z,40.30
2023-04-11T04:13:15.840Z,31.80
2023-04-11T04:18:38.112Z,34.25
2023-04-11T04:29:35.379Z,30.97
2023-04-11T04:35:09.840Z,36.17
2023-04-11T04:40:33.299Z,33.90
2023-04-11T04:45:55.824Z,32.50
2023-04-11T04:51:18.315Z,32.97
2023-04-11T04:56:42.098Z,33.17
2023-04-11T05:02:04.576Z,33.37
2023-04-11T05:07:27.047Z,36.20
2023-04-11T05:12:49.399Z,31.73
2023-04-11T05:18:12.604Z,32.40
2023-04-11T05:23:34.969Z,35.90
2023-04-11T05:28:57.585Z,32.30
2023-04-11T05:34:21.169Z,34.83
2023-04-11T05:39:43.687Z,32.20
2023-04-11T05:45:06.449Z,35.60
2023-04-11T05:50:29.456Z,30.10
2023-04-11T05:55:51.868Z,29.27
2023-04-11T06:01:16.384Z,31.13
2023-04-11T06:06:39.222Z,28.37
2023-04-11T06:12:02.770Z,33.23
2023-04-11T06:17:25.234Z,27.95
2023-04-11T06:22:49.214Z,24.67
2023-04-11T06:28:11.573Z,28.70
2023-04-11T06:33:34.471Z,27.22
2023-04-11T06:38:56.922Z,27.22
2023-04-11T06:44:19.328Z,30.23
2023-04-11T06:49:42.892Z,31.25
2023-04-11T06:55:08.228Z,26.68
2023-04-11T07:00:32.561Z,28.00
2023-04-11T07:05:54.870Z,22.42
2023-04-11T07:11:19.158Z,23.83
2023-04-11T07:16:42.806Z,21.57
2023-04-11T07:22:05.487Z,20.92
2023-04-11T07:27:29.158Z,22.42
2023-04-11T07:32:51.649Z,21.45
2023-04-11T07:38:16.116Z,17.82
2023-04-11T07:43:54.322Z,20.93
2023-04-11T07:49:20.226Z,16.03
2023-04-11T07:54:42.514Z,15.40
2023-04-11T08:00:06.155Z,18.65
2023-04-11T08:05:28.835Z,13.08
2023-04-11T08:10:52.324Z,16.52
2023-04-11T08:16:17.459Z,13.97
2023-04-11T08:21:41.522Z,11.80
2023-04-11T08:27:04.034Z,12.80
2023-04-11T08:32:26.975Z,11.57
2023-04-11T08:37:50.455Z,13.93
2023-04-11T08:43:21.250Z,12.47
2023-04-11T08:48:44.442Z,13.22
2023-04-11T08:54:15.399Z,15.10
2023-04-11T08:59:40.574Z,14.30
2023-04-11T09:05:03.935Z,11.73
2023-04-11T09:10:39.797Z,11.10
2023-04-11T09:16:26.642Z,12.60
2023-04-11T09:21:58.356Z,15.45
2023-04-11T09:27:31.414Z,13.58
2023-04-11T09:32:53.969Z,13.03
2023-04-11T09:38:18.386Z,13.38
2023-04-11T09:43:42.825Z,12.53
2023-04-11T09:49:07.666Z,15.28
2023-04-11T09:54:33.304Z,12.37
2023-04-11T09:59:58.569Z,11.85
2023-04-11T10:05:24.742Z,12.23
2023-04-11T10:10:49.335Z,10.88
2023-04-11T10:16:32.579Z,10.72
2023-04-11T10:22:04.874Z,13.50
2023-04-11T10:27:45.054Z,10.10
2023-04-11T10:33:28.568Z,9.10
2023-04-11T10:38:56.615Z,9.07
2023-04-11T10:44:33.341Z,8.40
2023-04-11T10:49:57.126Z,11.93
2023-04-11T10:55:29.655Z,10.33
2023-04-11T11:01:31.327Z,12.73
2023-04-11T11:06:54.657Z,11.83
2023-04-11T11:12:29.714Z,9.27
2023-04-11T11:17:54.371Z,9.80
2023-04-11T11:23:18.883Z,8.70
2023-04-11T11:28:42.024Z,9.10
2023-04-11T11:34:22.281Z,9.47
2023-04-11T11:39:29.845Z,7.77
2023-04-11T11:44:52.135Z,10.93
2023-04-11T11:50:15.146Z,8.73
2023-04-11T11:55:40.807Z,8.08
2023-04-11T12:01:05.093Z,7.40
2023-04-11T12:06:28.383Z,8.40
2023-04-11T12:11:53.597Z,8.58
2023-04-11T12:17:16.593Z,6.15
2023-04-11T12:22:39.048Z,8.65
2023-04-11T12:28:02.684Z,9.17
2023-04-11T12:33:25.016Z,9.03
2023-04-11T12:38:47.361Z,7.10
2023-04-11T12:44:10.474Z,11.67
2023-04-11T12:49:32.789Z,10.98
2023-04-11T12:54:55.541Z,10.27
2023-04-11T13:00:18.692Z,8.98
2023-04-11T13:05:41.073Z,6.55
2023-04-11T13:11:03.392Z,9.27
2023-04-11T13:16:25.932Z,8.43
2023-04-11T13:21:48.394Z,9.30
2023-04-11T13:27:10.719Z,8.08
2023-04-11T13:32:33.011Z,10.20
2023-04-11T13:37:55.302Z,9.05
2023-04-11T13:43:18.308Z,9.83
2023-04-11T13:48:41.040Z,22.77
2023-04-11T13:54:03.280Z,12.50
2023-04-11T13:59:26.080Z,9.03
2023-04-11T14:04:48.437Z,9.38
2023-04-11T14:10:11.380Z,8.63
2023-04-11T14:15:33.726Z,10.77
2023-04-11T14:20:58.743Z,10.57
2023-04-11T14:26:21.090Z,13.20
2023-04-11T14:31:43.411Z,14.50
2023-04-11T14:37:06.875Z,12.03
2023-04-11T14:42:29.286Z,11.07
2023-04-11T14:47:51.935Z,11.70
2023-04-11T14:53:14.383Z,15.48
2023-04-11T14:58:36.917Z,13.18
2023-04-11T15:04:00.200Z,20.35
2023-04-11T15:09:23.060Z,16.43
2023-04-11T15:14:45.710Z,24.17
2023-04-11T15:20:08.560Z,24.83
2023-04-11T15:25:32.955Z,24.95
2023-04-11T15:31:00.810Z,21.87
2023-04-11T15:36:23.523Z,25.02
2023-04-11T15:41:45.979Z,25.02
2023-04-11T15:47:09.257Z,24.32
2023-04-11T15:52:31.870Z,18.77
2023-04-11T15:57:55.440Z,13.88
2023-04-11T16:03:20.834Z,15.05
2023-04-11T16:08:44.200Z,7.58
2023-04-11T16:14:15.835Z,8.70
2023-04-11T16:19:49.396Z,6.97
2023-04-11T16:25:15.819Z,7.40
2023-04-11T16:30:38.175Z,6.03
2023-04-11T16:36:01.002Z,5.60
2023-04-11T16:41:23.954Z,5.40
2023-04-11T16:46:47.988Z,4.45
2023-04-11T16:52:11.795Z,2.80
2023-04-11T16:57:35.245Z,4.10
2023-04-11T17:02:57.909Z,2.50
2023-04-11T17:08:21.047Z,4.45
2023-04-11T17:13:45.421Z,3.45
2023-04-11T17:19:08.071Z,3.53
2023-04-11T17:24:30.307Z,4.20
2023-04-11T17:29:53.145Z,3.45
2023-04-11T17:35:15.999Z,3.55
2023-04-11T17:40:38.365Z,2.60
2023-04-11T17:46:02.627Z,4.20
2023-04-11T17:51:27.646Z,4.35
2023-04-11T17:56:51.147Z,5.00
2023-04-11T18:02:13.565Z,3.45
2023-04-11T18:07:37.683Z,19.45
2023-04-11T18:13:05.346Z,2.90
2023-04-11T18:18:27.573Z,7.60
2023-04-11T18:23:50.850Z,5.07
2023-04-11T18:29:13.098Z,5.05
2023-04-11T18:34:35.366Z,8.95
2023-04-11T18:39:57.666Z,12.00
2023-04-11T18:45:23.386Z,8.43
2023-04-11T18:50:48.280Z,6.67
2023-04-11T18:56:12.105Z,5.90
2023-04-11T19:01:34.619Z,8.48
2023-04-11T19:06:59.438Z,10.43
2023-04-11T19:12:22.555Z,14.28
2023-04-11T19:17:44.896Z,11.80
2023-04-11T19:23:07.704Z,11.63
2023-04-11T19:28:30.171Z,10.40
2023-04-11T19:33:54.170Z,11.48
2023-04-11T19:39:16.648Z,10.65
2023-04-11T19:44:40.103Z,12.98
2023-04-11T19:50:05.015Z,10.28
2023-04-11T19:55:28.221Z,9.90
2023-04-11T20:00:51.152Z,9.18
2023-04-11T20:06:27.634Z,8.17
2023-04-11T20:11:52.893Z,9.87
2023-04-11T20:17:16.746Z,9.40
2023-04-11T20:22:41.208Z,10.20
2023-04-11T20:28:06.282Z,10.83
2023-04-11T20:33:31.027Z,10.27
2023-04-11T20:38:56.194Z,11.95
2023-04-11T20:44:22.077Z,10.40
2023-04-11T20:55:30.780Z,13.13
2023-04-11T21:00:54.216Z,13.63
2023-04-11T21:06:16.529Z,14.70
2023-04-11T21:11:39.437Z,15.30
2023-04-11T21:17:02.073Z,15.17
2023-04-11T21:22:24.987Z,15.40
2023-04-11T21:27:47.391Z,16.00
2023-04-11T21:33:10.939Z,17.07
2023-04-11T21:38:34.369Z,16.00
2023-04-11T21:43:56.857Z,16.00
2023-04-11T21:49:19.645Z,14.73
2023-04-11T21:54:41.922Z,13.38
2023-04-11T22:00:05.074Z,13.33
2023-04-11T22:05:29.309Z,19.07
2023-04-11T22:10:52.770Z,17.45
2023-04-11T22:16:15.173Z,17.15
2023-04-11T22:21:39.842Z,18.63
2023-04-11T22:27:04.525Z,18.02
2023-04-11T22:32:27.498Z,19.35
2023-04-11T22:37:50.024Z,16.57
2023-04-11T22:43:13.061Z,21.13
2023-04-11T22:48:36.751Z,20.80
2023-04-11T22:53:59.479Z,18.75
2023-04-11T22:59:22.078Z,18.90
2023-04-11T23:04:45.432Z,19.47
2023-04-11T23:10:09.461Z,19.87
2023-04-11T23:15:32.105Z,20.57
2023-04-11T23:20:54.464Z,20.03
2023-04-11T23:26:19.200Z,20.87
2023-04-11T23:31:41.543Z,21.13
2023-04-11T23:37:04.020Z,21.80
2023-04-11T23:42:27.090Z,21.23
2023-04-11T23:47:49.530Z,21.87
2023-04-11T23:53:11.912Z,17.37
2023-04-11T23:58:34.207Z,19.53
